createdAt,value
2019-04-27T00:00:47.700Z,13.28
2019-04-27T00:06:05.402Z,13.20
2019-04-27T00:11:11.218Z,13.24
2019-04-27T00:16:18.647Z,13.24
2019-04-27T00:21:39.720Z,13.46
2019-04-27T00:26:45.619Z,13.69
2019-04-27T00:31:53.402Z,13.73
2019-04-27T00:37:17.331Z,13.30
2019-04-27T00:42:24.865Z,12.89
2019-04-27T00:47:30.850Z,12.74
2019-04-27T00:52:36.634Z,12.71
2019-04-27T00:58:00.719Z,12.44
2019-04-27T01:03:11.340Z,12.77
2019-04-27T01:08:17.156Z,12.33
2019-04-27T01:13:23.085Z,12.13
2019-04-27T01:18:28.982Z,12.09
2019-04-27T01:23:34.754Z,11.93
2019-04-27T01:28:43.224Z,11.86
2019-04-27T01:33:49.060Z,11.79
2019-04-27T01:38:55.951Z,11.92
2019-04-27T01:44:01.834Z,11.82
2019-04-27T01:49:09.180Z,11.63
2019-04-27T01:54:16.633Z,11.44
2019-04-27T01:59:22.446Z,11.41
2019-04-27T02:04:29.789Z,11.33
2019-04-27T02:09:35.684Z,11.15
2019-04-27T02:14:41.484Z,11.14
2019-04-27T02:19:47.344Z,11.10
2019-04-27T02:24:53.158Z,11.12
2019-04-27T02:30:16.823Z,11.25
2019-04-27T02:35:22.659Z,11.21
2019-04-27T02:40:51.005Z,11.30
2019-04-27T02:45:56.926Z,11.28
2019-04-27T02:51:04.351Z,11.03
2019-04-27T02:56:11.284Z,11.12
2019-04-27T03:01:20.126Z,10.99
2019-04-27T03:06:26.048Z,11.01
2019-04-27T03:11:32.677Z,10.85
2019-04-27T03:16:49.667Z,10.73
2019-04-27T03:21:59.192Z,10.82
2019-04-27T03:27:06.320Z,10.92
2019-04-27T03:32:13.069Z,11.07
2019-04-27T03:37:20.302Z,10.75
2019-04-27T03:42:26.406Z,10.65
2019-04-27T03:47:32.263Z,10.75
2019-04-27T03:52:43.762Z,10.91
2019-04-27T03:58:00.430Z,10.91
2019-04-27T04:03:06.565Z,10.98
2019-04-27T04:08:12.431Z,11.08
2019-04-27T04:13:22.443Z,11.10
2019-04-27T04:18:29.361Z,10.77
2019-04-27T04:23:34.123Z,10.91
2019-04-27T04:28:39.619Z,10.93
2019-04-27T04:33:45.553Z,11.02
2019-04-27T04:38:50.658Z,10.90
2019-04-27T04:44:14.013Z,10.97
2019-04-27T04:49:19.525Z,10.74
2019-04-27T04:54:25.020Z,10.82
2019-04-27T04:59:31.116Z,10.78
2019-04-27T05:04:39.005Z,10.76
2019-04-27T05:09:45.319Z,10.77
2019-04-27T05:14:54.578Z,10.91
2019-04-27T05:20:02.111Z,10.82
2019-04-27T05:25:09.317Z,10.69
2019-04-27T05:30:16.095Z,10.84
2019-04-27T05:35:22.235Z,10.75
2019-04-27T05:40:30.942Z,10.75
2019-04-27T05:46:09.956Z,10.83
2019-04-27T05:51:16.059Z,10.74
2019-04-27T05:56:22.097Z,10.76
2019-04-27T06:01:29.661Z,10.76
2019-04-27T06:06:35.781Z,10.89
2019-04-27T06:11:44.892Z,10.90
2019-04-27T06:16:51.333Z,10.86
2019-04-27T06:22:01.031Z,10.99
2019-04-27T06:27:05.615Z,10.85
2019-04-27T06:32:11.973Z,11.02
2019-04-27T06:37:19.304Z,10.93
2019-04-27T06:42:25.731Z,11.13
2019-04-27T06:47:31.802Z,11.02
2019-04-27T06:52:39.036Z,11.17
2019-04-27T06:57:45.251Z,11.07
2019-04-27T07:02:55.161Z,11.11
2019-04-27T07:08:00.000Z,11.20
2019-04-27T07:13:05.967Z,11.13
2019-04-27T07:18:11.992Z,11.32
2019-04-27T07:23:18.744Z,11.43
2019-04-27T07:28:25.821Z,11.67
2019-04-27T07:33:31.870Z,11.89
2019-04-27T07:38:39.401Z,11.92
2019-04-27T07:43:50.098Z,11.61
2019-04-27T07:48:56.054Z,11.90
2019-04-27T07:54:01.927Z,11.97
2019-04-27T07:59:09.138Z,11.75
2019-04-27T08:04:18.745Z,11.68
2019-04-27T08:09:24.712Z,11.81
2019-04-27T08:14:30.650Z,11.72
2019-04-27T08:19:36.700Z,11.89
2019-04-27T08:24:42.616Z,11.82
2019-04-27T08:29:53.350Z,12.82
2019-04-27T08:34:59.561Z,12.95
2019-04-27T08:40:09.460Z,12.73
2019-04-27T08:45:16.018Z,12.87
2019-04-27T08:50:22.033Z,13.35
2019-04-27T08:55:29.457Z,13.58
2019-04-27T09:00:35.554Z,13.65
2019-04-27T09:05:41.641Z,14.29
2019-04-27T09:10:59.039Z,14.34
2019-04-27T09:16:12.825Z,13.68
2019-04-27T09:21:19.224Z,13.11
2019-04-27T09:26:25.234Z,13.25
2019-04-27T09:31:31.164Z,12.93
2019-04-27T09:36:37.544Z,12.79
2019-04-27T09:41:43.558Z,12.60
2019-04-27T09:46:49.517Z,12.79
2019-04-27T09:51:55.812Z,12.84
2019-04-27T09:57:02.041Z,12.55
2019-04-27T10:02:08.605Z,12.64
2019-04-27T10:07:16.565Z,12.69
2019-04-27T10:12:22.627Z,12.58
2019-04-27T10:17:29.689Z,13.04
2019-04-27T10:22:41.102Z,13.27
2019-04-27T10:27:46.174Z,13.37
2019-04-27T10:32:52.153Z,13.54
2019-04-27T10:37:58.118Z,13.57
2019-04-27T10:43:06.141Z,13.75
2019-04-27T10:48:12.219Z,13.79
2019-04-27T10:53:18.268Z,14.50
2019-04-27T10:58:25.432Z,14.21
2019-04-27T11:03:49.690Z,14.65
2019-04-27T11:08:56.156Z,14.70
2019-04-27T11:14:02.310Z,14.83
2019-04-27T11:19:08.730Z,15.06
2019-04-27T11:24:14.761Z,15.62
2019-04-27T11:29:21.181Z,15.36
2019-04-27T11:34:45.955Z,15.39
2019-04-27T11:39:52.196Z,15.72
2019-04-27T11:44:58.421Z,15.94
2019-04-27T11:50:08.423Z,16.09
2019-04-27T11:55:16.214Z,16.11
2019-04-27T12:00:23.535Z,16.13
2019-04-27T12:05:29.190Z,16.28
2019-04-27T12:10:36.338Z,16.39
2019-04-27T12:15:42.635Z,16.46
2019-04-27T12:20:48.645Z,17.14
2019-04-27T12:25:56.318Z,16.76
2019-04-27T12:31:04.081Z,17.22
2019-04-27T12:36:10.263Z,16.95
2019-04-27T12:41:16.230Z,17.29
2019-04-27T12:46:22.266Z,17.47
2019-04-27T12:51:28.296Z,16.73
2019-04-27T12:56:51.089Z,16.83
2019-04-27T13:01:57.317Z,16.85
2019-04-27T13:07:03.371Z,17.28
2019-04-27T13:12:09.457Z,17.11
2019-04-27T13:17:16.447Z,16.98
2019-04-27T13:22:22.688Z,17.18
2019-04-27T13:27:28.718Z,17.36
2019-04-27T13:32:36.408Z,17.47
2019-04-27T13:37:44.202Z,17.18
2019-04-27T13:42:57.282Z,17.50
2019-04-27T13:48:09.188Z,17.14
2019-04-27T13:53:16.786Z,17.32
2019-04-27T13:58:22.986Z,18.36
2019-04-27T14:03:29.935Z,18.47
2019-04-27T14:08:36.039Z,18.36
2019-04-27T14:13:41.934Z,17.78
2019-04-27T14:18:48.198Z,17.72
2019-04-27T14:23:54.222Z,18.03
2019-04-27T14:29:00.238Z,18.22
2019-04-27T14:34:06.225Z,17.46
2019-04-27T14:39:12.787Z,17.69
2019-04-27T14:44:18.857Z,18.81
2019-04-27T14:49:24.935Z,18.54
2019-04-27T14:54:45.095Z,19.46
2019-04-27T14:59:38.646Z,19.29
2019-04-27T15:04:45.557Z,18.60
2019-04-27T15:09:54.449Z,18.25
2019-04-27T15:15:01.495Z,18.18
2019-04-27T15:20:15.491Z,18.38
2019-04-27T15:25:21.524Z,17.82
2019-04-27T15:30:29.068Z,18.06
2019-04-27T15:35:51.744Z,17.58
2019-04-27T15:41:08.907Z,18.09
2019-04-27T15:46:15.083Z,18.18
2019-04-27T15:51:21.345Z,17.92
2019-04-27T15:56:30.433Z,17.65
2019-04-27T16:01:36.137Z,17.49
2019-04-27T16:06:47.372Z,17.92
2019-04-27T16:11:58.359Z,17.98
2019-04-27T16:16:58.908Z,17.98
2019-04-27T16:22:05.158Z,18.45
2019-04-27T16:27:11.243Z,20.00
2019-04-27T16:32:17.770Z,21.41
2019-04-27T16:37:41.750Z,21.11
2019-04-27T16:42:50.683Z,21.42
2019-04-27T16:47:56.560Z,21.14
2019-04-27T16:53:03.417Z,20.19
2019-04-27T16:58:15.705Z,20.11
2019-04-27T17:03:18.128Z,19.04
2019-04-27T17:08:26.586Z,18.46
2019-04-27T17:13:35.764Z,18.43
2019-04-27T17:18:46.284Z,17.98
2019-04-27T17:23:52.369Z,17.88
2019-04-27T17:28:59.969Z,17.63
2019-04-27T17:34:08.026Z,17.51
2019-04-27T17:39:13.983Z,17.24
2019-04-27T17:44:23.168Z,17.27
2019-04-27T17:49:28.419Z,17.11
2019-04-27T17:54:34.301Z,16.86
2019-04-27T17:59:40.320Z,16.59
2019-04-27T18:04:48.386Z,16.34
2019-04-27T18:09:54.433Z,16.26
2019-04-27T18:15:00.556Z,16.13
2019-04-27T18:20:18.433Z,16.01
2019-04-27T18:25:24.977Z,16.30
2019-04-27T18:30:33.660Z,15.56
2019-04-27T18:35:40.445Z,15.47
2019-04-27T18:40:46.450Z,15.22
2019-04-27T18:45:52.136Z,15.13
2019-04-27T18:51:05.909Z,15.19
2019-04-27T18:56:12.086Z,15.39
2019-04-27T19:01:18.748Z,15.43
2019-04-27T19:06:24.749Z,15.39
2019-04-27T19:11:31.893Z,15.57
2019-04-27T19:16:38.463Z,15.65
2019-04-27T19:21:44.946Z,15.63
2019-04-27T19:27:16.176Z,15.63
2019-04-27T19:32:15.779Z,15.57
2019-04-27T19:37:21.916Z,15.61
2019-04-27T19:42:28.642Z,15.60
2019-04-27T19:47:34.832Z,15.40
2019-04-27T19:52:40.726Z,15.02
2019-04-27T19:57:46.754Z,15.14
2019-04-27T20:02:52.853Z,15.35
2019-04-27T20:08:00.484Z,15.13
2019-04-27T20:13:06.562Z,15.12
2019-04-27T20:18:12.591Z,14.77
2019-04-27T20:23:22.253Z,14.96
2019-04-27T20:28:27.530Z,15.12
2019-04-27T20:33:33.669Z,14.64
2019-04-27T20:38:41.833Z,14.77
2019-04-27T20:43:47.881Z,15.03
2019-04-27T20:48:53.656Z,15.04
2019-04-27T20:54:01.765Z,14.87
2019-04-27T20:59:07.666Z,14.91
2019-04-27T21:04:14.257Z,14.93
2019-04-27T21:09:21.315Z,14.85
2019-04-27T21:14:27.283Z,14.85
2019-04-27T21:19:33.159Z,14.83
2019-04-27T21:24:38.935Z,14.87
2019-04-27T21:29:44.862Z,14.81
2019-04-27T21:34:51.552Z,14.87
2019-04-27T21:40:17.019Z,14.99
2019-04-27T21:45:22.809Z,15.03
2019-04-27T21:50:28.589Z,14.92
2019-04-27T21:55:35.914Z,14.80
2019-04-27T22:00:43.278Z,14.82
2019-04-27T22:05:51.615Z,14.67
2019-04-27T22:10:57.572Z,14.49
2019-04-27T22:16:03.439Z,14.48
2019-04-27T22:21:09.198Z,14.46
2019-04-27T22:26:15.617Z,14.55
2019-04-27T22:31:21.701Z,14.27
2019-04-27T22:36:27.452Z,14.40
2019-04-27T22:41:34.848Z,14.39
2019-04-27T22:46:48.430Z,14.36
2019-04-27T22:51:54.120Z,14.53
2019-04-27T22:57:01.454Z,14.41
2019-04-27T23:02:08.777Z,14.48
2019-04-27T23:07:14.538Z,14.39
2019-04-27T23:12:21.178Z,14.36
2019-04-27T23:17:35.702Z,14.44
2019-04-27T23:22:41.442Z,14.34
2019-04-27T23:27:47.139Z,14.15
2019-04-27T23:32:53.693Z,14.12
2019-04-27T23:38:04.739Z,14.09
2019-04-27T23:43:07.012Z,14.22
2019-04-27T23:48:12.776Z,14.15
2019-04-27T23:53:21.900Z,14.12
2019-04-27T23:58:27.669Z,14.09
